Time;durP1;ratioP1;P1;durP2;ratioP2;P2;SDS_P1;SDS_P2;PMS_P1;PMS_P2;Temp;Humidity;BMP_temperature;BMP_pressure;BME280_temperature;BME280_humidity;BME280_pressure;Samples;Min_cycle;Max_cycle;Signal;HPM_P1;HPM_P2
2023/12/24 00:01:00;;;;;;;;;2.00;2.00;;;;;16.13;100.00;101166.53;2079453;28;44846;-60
2023/12/24 00:02:00;;;;;;;;;0.67;0.67;;;;;16.13;100.00;101163.88;2088688;28;45248;-59
2023/12/24 00:03:00;;;;;;;;;3.67;1.33;;;;;16.12;100.00;101164.81;2088325;28;44824;-59
2023/12/24 00:04:01;;;;;;;;;1.67;1.00;;;;;16.08;100.00;101166.72;2087450;28;44824;-62
2023/12/24 00:05:01;;;;;;;;;1.00;1.00;;;;;16.09;100.00;101165.78;2084760;28;44810;-61
2023/12/24 00:06:01;;;;;;;;;2.00;2.00;;;;;16.09;100.00;101168.47;2085979;28;45031;-59
2023/12/24 00:07:02;;;;;;;;;2.00;2.00;;;;;16.08;100.00;101168.53;2084640;28;45449;-59
2023/12/24 00:08:02;;;;;;;;;2.00;2.00;;;;;16.08;100.00;101169.41;2088487;28;44850;-61
2023/12/24 00:09:02;;;;;;;;;1.00;1.00;;;;;16.01;100.00;101173.25;2087251;28;45057;-59
2023/12/24 00:10:03;;;;;;;;;4.00;3.00;;;;;16.00;100.00;101166.13;2083448;28;44992;-61
2023/12/24 00:11:05;;;;;;;;;1.00;1.00;;;;;16.00;100.00;101167.94;2084216;28;44823;-61
2023/12/24 00:12:06;;;;;;;;;1.00;1.00;;;;;15.98;100.00;101161.78;2086826;28;45076;-58
2023/12/24 00:13:06;;;;;;;;;1.00;1.00;;;;;15.96;100.00;101164.50;2089158;28;44980;-61
2023/12/24 00:14:07;;;;;;;;;1.00;1.00;;;;;15.97;100.00;101174.28;2085565;28;45076;-61
2023/12/24 00:15:08;;;;;;;;;1.00;1.00;;;;;16.05;100.00;101177.56;2085143;28;44856;-61
2023/12/24 00:16:08;;;;;;;;;0.00;0.00;;;;;16.07;100.00;101181.06;2082016;28;44953;-59
2023/12/24 00:17:08;;;;;;;;;1.00;1.00;;;;;16.10;100.00;101172.91;2086588;28;44957;-60
2023/12/24 00:18:08;;;;;;;;;1.00;1.00;;;;;16.10;100.00;101182.72;2083537;28;44843;-60
2023/12/24 00:19:09;;;;;;;;;0.33;0.33;;;;;16.09;100.00;101168.47;2084027;28;44799;-59
2023/12/24 00:20:09;;;;;;;;;2.00;2.00;;;;;16.09;100.00;101181.00;2086977;28;45513;-59
2023/12/24 00:21:13;;;;;;;;;2.33;1.00;;;;;16.08;100.00;101179.25;2081508;28;44910;-61
2023/12/24 00:22:13;;;;;;;;;1.00;1.00;;;;;16.05;100.00;101174.88;2084167;28;44946;-59
2023/12/24 00:23:14;;;;;;;;;1.00;1.00;;;;;16.04;100.00;101175.81;2085140;28;44851;-61
2023/12/24 00:24:14;;;;;;;;;0.67;0.67;;;;;16.02;100.00;101172.31;2088896;28;44945;-61
2023/12/24 00:25:15;;;;;;;;;1.00;1.00;;;;;16.03;100.00;101181.22;2086848;28;44933;-60
2023/12/24 00:26:16;;;;;;;;;1.00;1.00;;;;;16.05;100.00;101182.91;2083920;28;45081;-59
2023/12/24 00:27:16;;;;;;;;;1.25;1.25;;;;;16.06;100.00;101181.97;2088377;28;45067;-59
2023/12/24 00:28:16;;;;;;;;;1.00;0.33;;;;;16.08;100.00;101174.75;2087896;28;45094;-58
2023/12/24 00:29:17;;;;;;;;;1.00;1.00;;;;;16.06;100.00;101176.63;2088710;28;44941;-60
2023/12/24 00:30:17;;;;;;;;;2.00;2.00;;;;;16.08;100.00;101177.44;2088980;28;44847;-60
2023/12/24 00:31:18;;;;;;;;;2.00;2.00;;;;;16.07;100.00;101164.13;2089128;28;44886;-60
2023/12/24 00:32:19;;;;;;;;;1.67;1.67;;;;;16.06;100.00;101171.28;2088839;28;44905;-58
2023/12/24 00:33:20;;;;;;;;;1.00;1.00;;;;;16.06;100.00;101183.78;2088586;28;44861;-60
2023/12/24 00:34:21;;;;;;;;;2.00;2.00;;;;;16.04;100.00;101161.56;2088859;28;44914;-59
2023/12/24 00:35:21;;;;;;;;;1.33;1.33;;;;;16.01;100.00;101175.94;2088765;28;45138;-58
2023/12/24 00:36:22;;;;;;;;;1.00;1.00;;;;;16.00;100.00;101174.16;2088430;28;44934;-59
2023/12/24 00:37:22;;;;;;;;;1.67;1.67;;;;;16.00;100.00;101174.16;2087826;28;45033;-58
2023/12/24 00:38:23;;;;;;;;;1.00;1.00;;;;;16.01;100.00;101172.38;2088837;28;44913;-60
2023/12/24 00:39:23;;;;;;;;;1.00;1.00;;;;;15.97;100.00;101170.72;2088977;28;44894;-59
2023/12/24 00:40:24;;;;;;;;;1.00;1.00;;;;;15.96;100.00;101169.00;2088741;28;44973;-58
2023/12/24 00:41:25;;;;;;;;;0.33;0.33;;;;;15.94;100.00;101166.38;2088806;28;44814;-60
2023/12/24 00:42:25;;;;;;;;;1.33;1.33;;;;;15.97;100.00;101158.22;2088507;28;44769;-61
2023/12/24 00:43:25;;;;;;;;;1.00;1.00;;;;;15.95;100.00;101160.09;2087507;28;45108;-59
2023/12/24 00:44:25;;;;;;;;;1.00;1.00;;;;;15.93;100.00;101156.59;2087613;28;44928;-59
2023/12/24 00:45:26;;;;;;;;;1.00;1.00;;;;;15.95;100.00;101156.53;2088932;28;44977;-59
2023/12/24 00:46:26;;;;;;;;;1.00;1.00;;;;;15.93;100.00;101153.91;2088689;28;44903;-60
2023/12/24 00:47:26;;;;;;;;;1.00;1.00;;;;;15.93;100.00;101150.38;2088494;28;44950;-58
2023/12/24 00:48:27;;;;;;;;;1.00;1.00;;;;;15.92;100.00;101151.31;2088557;28;44799;-58
2023/12/24 00:49:29;;;;;;;;;1.00;1.00;;;;;15.91;100.00;101150.44;2088566;28;44838;-58
2023/12/24 00:50:29;;;;;;;;;1.50;0.75;;;;;15.92;100.00;101138.78;2089251;28;45006;-60
2023/12/24 00:51:29;;;;;;;;;0.00;0.00;;;;;16.02;100.00;101140.19;2088868;28;44872;-59
2023/12/24 00:52:30;;;;;;;;;1.00;1.00;;;;;16.08;100.00;101131.06;2088551;28;44784;-60
2023/12/24 00:53:30;;;;;;;;;2.00;2.00;;;;;16.10;100.00;101140.75;2088548;28;44866;-60
2023/12/24 00:54:31;;;;;;;;;1.67;1.00;;;;;16.11;100.00;101138.97;2087265;28;45164;-59
2023/12/24 00:55:31;;;;;;;;;1.00;1.00;;;;;16.12;100.00;101128.19;2088622;28;44932;-61
2023/12/24 00:56:32;;;;;;;;;2.00;2.00;;;;;16.13;100.00;101137.09;2089099;28;44831;-59
2023/12/24 00:57:32;;;;;;;;;1.00;1.00;;;;;16.16;100.00;101134.31;2088506;28;45143;-58
2023/12/24 00:58:32;;;;;;;;;1.00;1.00;;;;;16.18;100.00;101141.38;2088816;28;45169;-59
2023/12/24 00:59:33;;;;;;;;;2.00;2.00;;;;;16.18;100.00;101137.81;2088665;28;44852;-59
2023/12/24 01:00:33;;;;;;;;;1.33;1.33;;;;;16.18;100.00;101135.13;2087830;28;44822;-59
2023/12/24 01:01:33;;;;;;;;;1.00;1.00;;;;;16.18;100.00;101133.31;2088135;28;44826;-59
2023/12/24 01:02:34;;;;;;;;;1.00;1.00;;;;;16.19;100.00;101129.72;2088953;28;45037;-60
2023/12/24 01:03:34;;;;;;;;;1.00;1.00;;;;;16.19;100.00;101118.13;2088391;28;44838;-59
2023/12/24 01:04:35;;;;;;;;;1.00;1.00;;;;;16.19;100.00;101124.38;2088534;28;44867;-60
2023/12/24 01:05:35;;;;;;;;;0.33;0.00;;;;;16.21;100.00;101120.75;2087881;28;44958;-60
2023/12/24 01:06:35;;;;;;;;;1.00;1.00;;;;;16.21;100.00;101126.09;2087712;28;45521;-60
2023/12/24 01:07:36;;;;;;;;;2.33;2.33;;;;;16.21;100.00;101121.63;2087304;28;45058;-59
2023/12/24 01:08:36;;;;;;;;;2.00;2.00;;;;;16.23;100.00;101126.91;2088270;28;44988;-60
2023/12/24 01:09:37;;;;;;;;;2.00;2.00;;;;;16.22;100.00;101130.53;2087495;28;44897;-59
2023/12/24 01:10:37;;;;;;;;;1.00;1.00;;;;;16.21;100.00;101136.81;2085346;28;45044;-58
2023/12/24 01:11:40;;;;;;;;;2.00;2.00;;;;;16.22;100.00;101141.25;2093069;28;45034;-60
2023/12/24 01:12:42;;;;;;;;;1.25;1.25;;;;;16.23;100.00;101125.09;2081492;28;45035;-60
2023/12/24 01:13:42;;;;;;;;;0.50;0.00;;;;;16.21;100.00;101129.66;2093962;28;44972;-60
2023/12/24 01:14:43;;;;;;;;;2.67;2.67;;;;;16.24;100.00;101134.00;2096029;28;44999;-61
2023/12/24 01:15:43;;;;;;;;;2.00;1.00;;;;;16.24;100.00;101128.66;2088611;28;44837;-60
2023/12/24 01:16:44;;;;;;;;;2.00;2.00;;;;;16.22;100.00;101123.38;2088256;28;45394;-59
2023/12/24 01:17:44;;;;;;;;;2.00;2.00;;;;;16.21;100.00;101124.28;2088511;28;44967;-59
2023/12/24 01:18:46;;;;;;;;;1.67;1.67;;;;;16.21;100.00;101132.34;2088339;28;44771;-59
2023/12/24 01:19:46;;;;;;;;;4.00;3.00;;;;;16.19;100.00;101129.72;2088418;28;45205;-59
2023/12/24 01:20:46;;;;;;;;;2.00;2.00;;;;;16.19;100.00;101129.72;2088723;28;44798;-58
2023/12/24 01:21:47;;;;;;;;;1.00;1.00;;;;;16.17;100.00;101128.91;2084448;28;44870;-60
2023/12/24 01:22:47;;;;;;;;;1.00;1.00;;;;;16.17;100.00;101128.91;2080380;28;44816;-60
2023/12/24 01:23:47;;;;;;;;;2.33;2.00;;;;;16.16;100.00;101120.94;2088546;28;44899;-60
2023/12/24 01:24:48;;;;;;;;;3.00;1.67;;;;;16.15;100.00;101122.75;2085095;28;44945;-59
2023/12/24 01:25:48;;;;;;;;;3.00;3.00;;;;;16.18;100.00;101125.28;2080331;28;44921;-60
2023/12/24 01:26:49;;;;;;;;;1.33;1.33;;;;;16.18;100.00;101124.41;2087059;28;45230;-59
2023/12/24 01:27:52;;;;;;;;;3.00;2.00;;;;;16.18;100.00;101127.09;2086403;28;45097;-60
2023/12/24 01:28:52;;;;;;;;;1.50;1.50;;;;;16.18;100.00;101135.13;2088705;28;44984;-60
2023/12/24 01:29:54;;;;;;;;;2.67;2.67;;;;;16.15;100.00;101140.63;2087114;28;44941;-60
2023/12/24 01:30:54;;;;;;;;;2.75;2.00;;;;;16.15;100.00;101129.91;2086909;28;45087;-59
2023/12/24 01:31:55;;;;;;;;;2.67;1.00;;;;;16.12;100.00;101130.88;2088490;28;44821;-60
2023/12/24 01:32:55;;;;;;;;;1.00;1.00;;;;;16.12;100.00;101130.88;2086214;28;44831;-59
2023/12/24 01:33:55;;;;;;;;;1.67;1.67;;;;;16.11;100.00;101134.47;2087701;28;44922;-60
2023/12/24 01:34:56;;;;;;;;;2.00;2.00;;;;;16.12;100.00;101138.03;2087151;28;44942;-58
2023/12/24 01:35:56;;;;;;;;;1.00;1.00;;;;;16.11;100.00;101130.94;2088402;28;45163;-60
2023/12/24 01:36:56;;;;;;;;;1.00;1.00;;;;;16.12;100.00;101132.66;2088497;28;44959;-60
2023/12/24 01:37:57;;;;;;;;;1.67;1.67;;;;;16.12;100.00;101132.66;2088284;28;44948;-61
2023/12/24 01:38:57;;;;;;;;;2.00;2.00;;;;;16.12;100.00;101135.34;2088130;28;44956;-60
2023/12/24 01:39:57;;;;;;;;;3.00;2.00;;;;;16.10;100.00;101126.50;2088335;28;44842;-59
2023/12/24 01:40:57;;;;;;;;;1.00;1.00;;;;;16.11;100.00;101129.13;2088362;28;44893;-59
2023/12/24 01:41:58;;;;;;;;;1.00;1.00;;;;;16.11;100.00;101125.56;2088353;28;44772;-60
2023/12/24 01:42:58;;;;;;;;;1.00;1.00;;;;;16.13;100.00;101121.03;2088046;28;44976;-61
2023/12/24 01:43:58;;;;;;;;;1.00;1.00;;;;;16.11;100.00;101134.47;2088616;28;44857;-61
2023/12/24 01:44:59;;;;;;;;;1.00;1.00;;;;;16.12;100.00;101117.47;2088260;28;44827;-59
2023/12/24 01:45:59;;;;;;;;;2.00;2.00;;;;;16.12;100.00;101121.97;2085882;28;45048;-60
2023/12/24 01:47:00;;;;;;;;;2.00;2.00;;;;;16.12;100.00;101121.97;2096546;28;44960;-59
2023/12/24 01:48:00;;;;;;;;;1.00;1.00;;;;;16.09;100.00;101117.59;2093784;28;44938;-60
2023/12/24 01:49:01;;;;;;;;;1.33;1.00;;;;;16.07;100.00;101130.19;2088428;28;45254;-60
2023/12/24 01:50:03;;;;;;;;;1.00;1.00;;;;;16.05;100.00;101134.72;2088265;28;44884;-60
2023/12/24 01:51:03;;;;;;;;;1.00;1.00;;;;;16.03;100.00;101127.69;2087890;28;45129;-60
2023/12/24 01:52:04;;;;;;;;;2.00;2.00;;;;;16.04;100.00;101124.09;2088197;28;44799;-61
2023/12/24 01:53:05;;;;;;;;;1.00;1.00;;;;;16.04;100.00;101130.31;2088110;28;45060;-60
2023/12/24 01:54:06;;;;;;;;;3.00;1.33;;;;;16.05;100.00;101120.47;2088038;28;44892;-62
2023/12/24 01:55:07;;;;;;;;;2.00;2.00;;;;;16.07;100.00;101118.59;2088533;28;44856;-60
2023/12/24 01:56:08;;;;;;;;;2.00;2.00;;;;;16.07;100.00;101130.19;2088059;28;45021;-59
2023/12/24 01:57:08;;;;;;;;;2.00;2.00;;;;;16.07;100.00;101122.16;2088462;28;44839;-59
2023/12/24 01:58:09;;;;;;;;;2.00;1.67;;;;;16.07;100.00;101124.81;2088214;28;45186;-60
2023/12/24 01:59:11;;;;;;;;;0.00;0.00;;;;;16.05;100.00;101118.66;2089124;28;44826;-59
2023/12/24 02:00:11;;;;;;;;;1.25;1.25;;;;;16.05;100.00;101115.13;2088592;28;45176;-61
2023/12/24 02:01:12;;;;;;;;;1.00;1.00;;;;;16.04;100.00;101116.91;2085343;28;44890;-58
2023/12/24 02:02:13;;;;;;;;;1.00;1.00;;;;;16.03;100.00;101117.84;2086657;28;45076;-60
2023/12/24 02:03:13;;;;;;;;;1.33;1.33;;;;;16.01;100.00;101109.00;2095414;28;44847;-61
2023/12/24 02:04:15;;;;;;;;;1.00;1.00;;;;;16.02;100.00;101105.41;2094102;28;44993;-59
2023/12/24 02:05:16;;;;;;;;;1.00;1.00;;;;;16.01;100.00;101109.00;2088238;28;44782;-60
2023/12/24 02:06:17;;;;;;;;;1.00;1.00;;;;;16.00;100.00;101107.25;2088110;28;44948;-62
2023/12/24 02:07:19;;;;;;;;;1.00;0.00;;;;;15.97;100.00;101098.47;2088366;28;44972;-61
2023/12/24 02:08:21;;;;;;;;;1.00;1.00;;;;;15.96;100.00;101107.41;2088202;28;45113;-59
2023/12/24 02:09:21;;;;;;;;;1.00;1.00;;;;;15.93;100.00;101102.19;2088500;28;45061;-58
2023/12/24 02:10:22;;;;;;;;;1.00;1.00;;;;;15.93;100.00;101104.88;2085368;28;44802;-60
2023/12/24 02:11:23;;;;;;;;;1.00;1.00;;;;;15.88;100.00;101100.56;2088390;28;44786;-60
2023/12/24 02:12:23;;;;;;;;;2.00;2.00;;;;;15.90;100.00;101105.88;2088655;28;45065;-59
2023/12/24 02:13:24;;;;;;;;;1.00;1.00;;;;;15.90;100.00;101105.88;2088243;28;44960;-61
2023/12/24 02:14:24;;;;;;;;;2.00;1.00;;;;;15.89;100.00;101104.13;2088295;28;44803;-58
2023/12/24 02:15:25;;;;;;;;;1.00;1.00;;;;;15.89;100.00;101099.63;2088232;28;44957;-60
2023/12/24 02:16:29;;;;;;;;;1.00;1.00;;;;;15.88;100.00;101094.34;2095613;28;45354;-59
2023/12/24 02:17:31;;;;;;;;;1.00;1.00;;;;;15.88;100.00;101094.34;2086745;28;45145;-60
2023/12/24 02:18:32;;;;;;;;;1.00;1.00;;;;;15.85;100.00;101100.66;2086855;28;44913;-59
2023/12/24 02:19:33;;;;;;;;;1.00;1.00;;;;;15.87;100.00;101089.91;2077209;28;44880;-61
2023/12/24 02:20:33;;;;;;;;;1.00;1.00;;;;;15.89;100.00;101096.09;2078736;28;45102;-61
2023/12/24 02:21:33;;;;;;;;;0.33;0.00;;;;;15.87;100.00;101100.59;2088299;28;45276;-59
2023/12/24 02:22:34;;;;;;;;;1.00;1.00;;;;;15.86;100.00;101091.69;2088362;28;44947;-60
2023/12/24 02:23:34;;;;;;;;;1.00;1.00;;;;;15.86;100.00;101089.03;2088062;28;44900;-59
2023/12/24 02:24:34;;;;;;;;;3.00;1.00;;;;;15.87;100.00;101082.75;2088561;28;45056;-59
2023/12/24 02:25:35;;;;;;;;;1.67;1.00;;;;;15.88;100.00;101097.03;2088076;28;44858;-60
2023/12/24 02:26:42;;;;;;;;;1.67;1.67;;;;;15.89;100.00;101086.25;2088142;28;45097;-59
2023/12/24 02:27:49;;;;;;;;;1.00;1.00;;;;;15.90;100.00;101092.47;2088101;28;45017;-60
2023/12/24 02:28:58;;;;;;;;;1.00;1.00;;;;;15.90;100.00;101103.19;2087315;28;44783;-59
2023/12/24 02:30:07;;;;;;;;;0.00;0.00;;;;;15.88;100.00;101116.63;2087847;28;45019;-59
2023/12/24 02:31:15;;;;;;;;;1.75;1.00;;;;;15.92;100.00;101114.69;2087883;28;44922;-59
2023/12/24 02:32:17;;;;;;;;;1.00;1.00;;;;;15.91;100.00;101112.09;2087708;28;45144;-59
2023/12/24 02:33:20;;;;;;;;;0.00;0.00;;;;;15.89;100.00;101120.19;2087715;28;44940;-59
2023/12/24 02:34:20;;;;;;;;;1.75;1.00;;;;;15.84;100.00;101120.31;2082176;28;44887;-59
2023/12/24 02:35:21;;;;;;;;;1.00;1.00;;;;;15.85;100.00;101137.25;2084391;28;44949;-60
2023/12/24 02:36:22;;;;;;;;;1.67;1.00;;;;;15.85;100.00;101127.41;2085674;28;44990;-60
2023/12/24 02:37:23;;;;;;;;;2.00;2.00;;;;;15.84;100.00;101124.81;2087930;28;45119;-60
2023/12/24 02:38:23;;;;;;;;;1.00;1.00;;;;;15.86;100.00;101121.13;2088132;28;44920;-59
2023/12/24 02:39:24;;;;;;;;;1.00;1.00;;;;;15.87;100.00;101132.72;2086387;28;44800;-59
2023/12/24 02:40:24;;;;;;;;;1.00;1.00;;;;;15.94;100.00;101130.69;2085469;28;45012;-59
2023/12/24 02:41:24;;;;;;;;;1.00;1.00;;;;;15.88;100.00;101121.97;2087293;28;44819;-60
2023/12/24 02:42:25;;;;;;;;;1.00;1.00;;;;;15.88;100.00;101126.47;2087715;28;44970;-59
2023/12/24 02:43:25;;;;;;;;;0.67;0.67;;;;;15.90;100.00;101124.59;2087913;28;45344;-60
2023/12/24 02:44:25;;;;;;;;;0.67;0.67;;;;;15.92;100.00;101128.09;2087977;28;44891;-59
2023/12/24 02:45:26;;;;;;;;;1.00;1.00;;;;;15.91;100.00;101128.16;2087785;28;44921;-60
2023/12/24 02:46:26;;;;;;;;;1.00;1.00;;;;;15.98;100.00;101133.19;2089391;28;44808;-59
2023/12/24 02:47:26;;;;;;;;;0.00;0.00;;;;;16.01;100.00;101129.56;2089298;28;44890;-59
2023/12/24 02:48:27;;;;;;;;;1.33;1.00;;;;;16.02;100.00;101117.91;2089167;28;44901;-59
2023/12/24 02:49:27;;;;;;;;;1.00;1.00;;;;;16.04;100.00;101126.75;2088741;28;45076;-60
2023/12/24 02:50:27;;;;;;;;;1.00;1.00;;;;;16.04;100.00;101122.28;2080769;28;44865;-60
2023/12/24 02:51:28;;;;;;;;;1.00;1.00;;;;;16.06;100.00;101124.88;2089100;28;45031;-59
2023/12/24 02:52:29;;;;;;;;;0.00;0.00;;;;;16.06;100.00;101116.84;2088022;28;45189;-60
2023/12/24 02:53:30;;;;;;;;;2.00;1.00;;;;;16.05;100.00;101099.91;2089416;28;45169;-59
2023/12/24 02:54:30;;;;;;;;;1.00;1.00;;;;;16.06;100.00;101103.47;2089527;28;44806;-59
2023/12/24 02:55:30;;;;;;;;;0.33;0.33;;;;;16.05;100.00;101093.69;2089675;28;45060;-61
2023/12/24 02:56:36;;;;;;;;;1.00;1.00;;;;;16.05;100.00;101094.56;2089782;28;44878;-60
2023/12/24 02:57:36;;;;;;;;;2.00;1.00;;;;;16.06;100.00;101098.13;2089389;28;44892;-60
2023/12/24 02:58:37;;;;;;;;;1.00;1.00;;;;;16.07;100.00;101091.81;2089664;28;44815;-59
2023/12/24 02:59:37;;;;;;;;;0.33;0.33;;;;;16.07;100.00;101098.06;2085688;28;44800;-60
2023/12/24 03:00:37;;;;;;;;;0.00;0.00;;;;;16.07;100.00;101089.16;2089170;28;44886;-59
2023/12/24 03:01:38;;;;;;;;;0.67;0.67;;;;;16.06;100.00;101096.31;2089301;28;44916;-58
2023/12/24 03:02:38;;;;;;;;;2.00;2.00;;;;;16.06;100.00;101084.72;2088508;28;45094;-59
2023/12/24 03:03:39;;;;;;;;;1.00;1.00;;;;;16.06;100.00;101079.38;2089341;28;44954;-59
2023/12/24 03:04:39;;;;;;;;;1.00;1.00;;;;;16.06;100.00;101082.06;2088535;28;45021;-60
2023/12/24 03:05:40;;;;;;;;;1.67;1.67;;;;;16.07;100.00;101078.44;2089557;28;44863;-60
2023/12/24 03:06:40;;;;;;;;;1.00;1.00;;;;;16.08;100.00;101082.88;2089194;28;45264;-59
2023/12/24 03:07:40;;;;;;;;;0.33;0.33;;;;;16.07;100.00;101084.66;2089282;28;44862;-59
2023/12/24 03:08:41;;;;;;;;;1.00;1.00;;;;;16.07;100.00;101083.78;2089434;28;44968;-60
2023/12/24 03:09:41;;;;;;;;;1.00;1.00;;;;;16.03;100.00;101082.19;2089559;28;44900;-58
2023/12/24 03:10:41;;;;;;;;;1.00;1.00;;;;;16.07;100.00;101084.66;2087861;28;44988;-58
2023/12/24 03:11:41;;;;;;;;;1.67;1.67;;;;;16.07;100.00;101086.47;2088628;28;44869;-62
2023/12/24 03:12:42;;;;;;;;;1.67;1.33;;;;;16.07;100.00;101084.66;2087227;28;45247;-59
2023/12/24 03:13:42;;;;;;;;;1.00;1.00;;;;;16.07;100.00;101083.78;2092985;28;45473;-61
2023/12/24 03:14:42;;;;;;;;;1.00;1.00;;;;;16.08;100.00;101074.84;2089230;28;45047;-59
2023/12/24 03:15:43;;;;;;;;;3.00;3.00;;;;;16.08;100.00;101082.88;2089468;28;45250;-58
2023/12/24 03:16:44;;;;;;;;;1.00;1.00;;;;;16.09;100.00;101077.44;2089343;28;44936;-59
2023/12/24 03:17:44;;;;;;;;;1.00;1.00;;;;;15.98;100.00;101076.97;2089191;28;44904;-60
2023/12/24 03:18:44;;;;;;;;;1.00;1.00;;;;;15.97;100.00;101077.91;2089014;28;44970;-60
2023/12/24 03:19:45;;;;;;;;;2.00;2.00;;;;;16.02;100.00;101094.69;2089259;28;44974;-58
2023/12/24 03:20:45;;;;;;;;;1.00;1.00;;;;;16.07;100.00;101086.47;2089283;28;44952;-59
2023/12/24 03:21:45;;;;;;;;;2.00;2.00;;;;;16.06;100.00;101093.63;2089215;28;44809;-59
2023/12/24 03:22:46;;;;;;;;;1.00;1.00;;;;;16.08;100.00;101090.91;2090000;28;44853;-58
2023/12/24 03:23:46;;;;;;;;;2.00;2.00;;;;;16.07;100.00;101094.50;2089853;28;45219;-59
2023/12/24 03:24:46;;;;;;;;;1.00;1.00;;;;;16.07;100.00;101089.16;2089859;28;44833;-58
2023/12/24 03:25:47;;;;;;;;;1.00;1.00;;;;;16.07;100.00;101086.47;2081816;28;44881;-59
2023/12/24 03:26:47;;;;;;;;;2.00;1.00;;;;;16.06;100.00;101082.06;2088286;28;44771;-59
2023/12/24 03:27:47;;;;;;;;;1.00;1.00;;;;;16.04;100.00;101084.78;2087335;28;44927;-60
2023/12/24 03:28:48;;;;;;;;;2.00;1.00;;;;;16.03;100.00;101069.66;2088387;28;45044;-60
2023/12/24 03:29:49;;;;;;;;;2.00;1.25;;;;;16.07;100.00;101070.41;2089681;28;45580;-59
2023/12/24 03:30:49;;;;;;;;;2.00;2.00;;;;;16.08;100.00;101065.00;2089641;28;44832;-59
2023/12/24 03:31:50;;;;;;;;;5.00;4.00;;;;;16.09;100.00;101057.84;2089270;28;44949;-59
2023/12/24 03:32:50;;;;;;;;;3.00;3.00;;;;;16.07;100.00;101055.22;2089163;28;44769;-59
2023/12/24 03:33:50;;;;;;;;;3.00;3.00;;;;;16.06;100.00;101064.19;2088965;28;44776;-60
2023/12/24 03:34:50;;;;;;;;;2.00;2.00;;;;;16.02;100.00;101064.38;2087231;28;44984;-59
2023/12/24 03:35:51;;;;;;;;;1.67;1.67;;;;;16.00;100.00;101051.03;2089030;28;44941;-63
2023/12/24 03:36:51;;;;;;;;;2.00;2.00;;;;;15.99;100.00;101046.59;2089374;28;44856;-60
2023/12/24 03:37:51;;;;;;;;;1.33;1.00;;;;;16.03;100.00;101044.69;2088841;28;44878;-59
2023/12/24 03:38:52;;;;;;;;;2.33;2.33;;;;;16.03;100.00;101048.25;2089439;28;44850;-59
2023/12/24 03:39:52;;;;;;;;;1.00;1.00;;;;;16.04;100.00;101044.63;2089009;28;45025;-60
2023/12/24 03:40:52;;;;;;;;;1.00;1.00;;;;;16.03;100.00;101042.91;2089399;28;44938;-60
2023/12/24 03:41:52;;;;;;;;;1.00;1.00;;;;;16.00;100.00;101039.44;2084547;28;45060;-60
2023/12/24 03:42:53;;;;;;;;;1.00;1.00;;;;;16.01;100.00;101043.91;2086972;28;44946;-60
2023/12/24 03:43:53;;;;;;;;;2.00;2.00;;;;;16.01;100.00;101043.91;2083210;28;44935;-60
2023/12/24 03:44:53;;;;;;;;;2.00;2.00;;;;;15.96;100.00;101046.72;2087951;28;44775;-60
2023/12/24 03:45:54;;;;;;;;;1.00;1.00;;;;;15.98;100.00;101041.31;2086550;28;45383;-60
2023/12/24 03:46:54;;;;;;;;;2.67;2.00;;;;;16.00;100.00;101047.47;2085886;28;45001;-61
2023/12/24 03:47:54;;;;;;;;;2.00;2.00;;;;;15.98;100.00;101042.19;2084019;28;44965;-59
2023/12/24 03:48:55;;;;;;;;;1.00;1.00;;;;;15.97;100.00;101044.91;2083287;28;45035;-60
2023/12/24 03:49:55;;;;;;;;;1.00;1.00;;;;;15.97;100.00;101045.78;2089225;28;45142;-60
2023/12/24 03:50:55;;;;;;;;;2.00;2.00;;;;;15.97;100.00;101045.78;2089031;28;44890;-60
2023/12/24 03:51:56;;;;;;;;;0.00;0.00;;;;;15.97;100.00;101055.63;2089021;28;45219;-59
2023/12/24 03:52:56;;;;;;;;;2.00;2.00;;;;;15.97;100.00;101059.19;2088933;28;45092;-60
2023/12/24 03:53:58;;;;;;;;;2.00;2.00;;;;;15.97;100.00;101053.81;2088960;28;45298;-60
2023/12/24 03:54:58;;;;;;;;;1.00;1.00;;;;;15.98;100.00;101068.06;2089163;28;44888;-59
2023/12/24 03:55:58;;;;;;;;;1.33;1.33;;;;;15.95;100.00;101066.41;2088995;28;44890;-60
2023/12/24 03:56:59;;;;;;;;;1.33;1.33;;;;;15.96;100.00;101054.75;2088953;28;44909;-59
2023/12/24 03:57:59;;;;;;;;;2.00;2.00;;;;;15.96;100.00;101049.41;2089647;28;45038;-60
2023/12/24 03:59:00;;;;;;;;;4.33;4.33;;;;;15.94;100.00;101048.59;2089220;28;44846;-59
2023/12/24 04:00:00;;;;;;;;;2.00;2.00;;;;;15.94;100.00;101040.56;2089204;28;44811;-59
2023/12/24 04:01:01;;;;;;;;;7.67;7.33;;;;;15.91;100.00;101027.31;2087473;28;44958;-60
2023/12/24 04:02:02;;;;;;;;;2.33;2.00;;;;;15.92;100.00;101036.22;2083825;28;45057;-59
2023/12/24 04:03:03;;;;;;;;;3.00;3.00;;;;;15.91;100.00;101035.34;2087432;28;44896;-60
2023/12/24 04:04:03;;;;;;;;;4.67;3.00;;;;;15.85;100.00;101047.13;2089364;28;44996;-60
2023/12/24 04:05:04;;;;;;;;;3.00;3.00;;;;;15.91;100.00;101035.34;2089223;28;44853;-60
2023/12/24 04:06:13;;;;;;;;;2.00;2.00;;;;;15.95;100.00;101046.78;2086293;28;44859;-60
2023/12/24 04:07:16;;;;;;;;;1.00;1.00;;;;;15.95;100.00;101046.78;2086884;28;44885;-59
2023/12/24 04:08:17;;;;;;;;;2.00;2.00;;;;;15.89;100.00;101045.22;2097030;28;44870;-60
2023/12/24 04:09:17;;;;;;;;;6.00;6.00;;;;;15.93;100.00;101048.66;2096850;28;44857;-60
2023/12/24 04:10:17;;;;;;;;;3.00;2.00;;;;;15.95;100.00;101057.50;2088942;28;44963;-60
2023/12/24 04:11:18;;;;;;;;;1.00;1.00;;;;;15.91;100.00;101054.06;2088764;28;44777;-58
2023/12/24 04:12:18;;;;;;;;;5.00;2.67;;;;;15.89;100.00;101032.72;2071630;28;44875;-57
2023/12/24 04:13:18;;;;;;;;;1.67;1.67;;;;;15.89;100.00;101037.22;2071683;28;44888;-58
2023/12/24 04:14:19;;;;;;;;;1.00;1.00;;;;;15.95;100.00;101028.06;2088891;28;44811;-58
2023/12/24 04:15:19;;;;;;;;;2.00;0.33;;;;;15.90;100.00;101038.94;2084679;28;44804;-57
2023/12/24 04:16:19;;;;;;;;;1.00;1.00;;;;;15.93;100.00;101029.94;2088788;28;44984;-60
2023/12/24 04:17:19;;;;;;;;;1.00;1.00;;;;;15.94;100.00;101026.31;2089084;28;44886;-60
2023/12/24 04:18:20;;;;;;;;;3.00;3.00;;;;;15.94;100.00;101037.03;2087439;28;44857;-59
2023/12/24 04:19:21;;;;;;;;;1.00;1.00;;;;;15.87;100.00;101015.81;2096256;28;44940;-59
2023/12/24 04:20:21;;;;;;;;;0.25;0.25;;;;;15.88;100.00;101014.06;2092752;28;46239;-60
2023/12/24 04:21:22;;;;;;;;;0.33;0.33;;;;;15.83;100.00;101022.25;2089058;28;45489;-59
2023/12/24 04:22:22;;;;;;;;;1.00;1.00;;;;;15.81;100.00;101009.84;2089073;28;44989;-59
2023/12/24 04:23:22;;;;;;;;;1.00;0.67;;;;;15.85;100.00;101001.63;2088970;28;44962;-58
2023/12/24 04:24:23;;;;;;;;;1.67;1.00;;;;;15.80;100.00;101002.75;2088698;28;44953;-60
2023/12/24 04:25:23;;;;;;;;;0.33;0.33;;;;;15.76;100.00;100999.34;2089055;28;44759;-59
2023/12/24 04:26:24;;;;;;;;;1.00;1.00;;;;;15.81;100.00;101008.06;2089078;28;44780;-60
2023/12/24 04:27:25;;;;;;;;;1.00;1.00;;;;;15.82;100.00;100993.75;2088867;28;44944;-59
2023/12/24 04:28:25;;;;;;;;;0.00;0.00;;;;;15.80;100.00;100997.41;2089020;28;44846;-58
2023/12/24 04:29:25;;;;;;;;;2.00;1.33;;;;;15.79;100.00;100983.16;2088872;28;44978;-59
2023/12/24 04:30:26;;;;;;;;;2.00;1.00;;;;;15.79;100.00;100980.47;2089064;28;44984;-59
2023/12/24 04:31:26;;;;;;;;;1.00;1.00;;;;;15.79;100.00;100979.63;2088946;28;45147;-60
2023/12/24 04:32:26;;;;;;;;;0.00;0.00;;;;;15.80;100.00;100984.03;2088995;28;44832;-59
2023/12/24 04:33:27;;;;;;;;;0.00;0.00;;;;;15.80;100.00;100974.19;2088574;28;44823;-60
2023/12/24 04:34:27;;;;;;;;;1.00;1.00;;;;;15.76;100.00;100972.59;2087501;28;44960;-60
2023/12/24 04:35:28;;;;;;;;;1.00;1.00;;;;;15.78;100.00;100986.78;2084038;28;44855;-60
2023/12/24 04:36:28;;;;;;;;;1.00;1.00;;;;;15.78;100.00;100969.84;2088077;28;44879;-60
2023/12/24 04:37:28;;;;;;;;;0.00;0.00;;;;;15.78;100.00;100981.41;2088812;28;44941;-61
2023/12/24 04:38:28;;;;;;;;;1.00;1.00;;;;;15.79;100.00;100990.31;2083036;28;44963;-59
2023/12/24 04:39:29;;;;;;;;;1.00;1.00;;;;;15.78;100.00;100981.41;2086067;28;44740;-59